Time;durP1;ratioP1;P1;durP2;ratioP2;P2;SDS_P1;SDS_P2;PMS_P1;PMS_P2;Temp;Humidity;BMP_temperature;BMP_pressure;BME280_temperature;BME280_humidity;BME280_pressure;Samples;Min_cycle;Max_cycle;Signal;HPM_P1;HPM_P2
2023/07/30 00:00:40;;;;;;;3.20;1.90;;;18.50;52.90;;;;;;5060835;28;47505;-83
2023/07/30 00:03:06;;;;;;;3.50;1.80;;;18.40;52.90;;;;;;5058328;28;46486;-80
2023/07/30 00:05:32;;;;;;;3.60;1.97;;;18.50;52.90;;;;;;5059219;28;46530;-83
2023/07/30 00:07:57;;;;;;;4.40;2.23;;;18.50;52.30;;;;;;5040469;28;46499;-83
2023/07/30 00:10:23;;;;;;;3.53;2.00;;;18.90;53.70;;;;;;5059457;28;47584;-83
2023/07/30 00:12:48;;;;;;;3.57;2.00;;;18.50;53.30;;;;;;5061153;28;46289;-82
2023/07/30 00:15:14;;;;;;;3.80;2.47;;;18.50;53.30;;;;;;5058908;28;46985;-83
2023/07/30 00:17:39;;;;;;;4.07;2.20;;;18.50;53.40;;;;;;5040418;28;46531;-83
2023/07/30 00:20:07;;;;;;;4.50;1.90;;;18.50;54.20;;;;;;5059003;28;46446;-85
2023/07/30 00:22:33;;;;;;;5.70;2.30;;;18.60;53.40;;;;;;5055968;28;46436;-82
2023/07/30 00:24:58;;;;;;;4.80;2.30;;;18.60;53.40;;;;;;5042503;28;46618;-81
2023/07/30 00:27:24;;;;;;;5.20;2.10;;;18.50;53.60;;;;;;5056421;28;46539;-83
2023/07/30 00:29:50;;;;;;;4.90;2.40;;;18.50;53.70;;;;;;5060231;28;47231;-81
2023/07/30 00:32:16;;;;;;;5.93;2.30;;;18.40;53.90;;;;;;5042450;28;46595;-80
2023/07/30 00:34:42;;;;;;;4.70;2.10;;;18.60;54.30;;;;;;5056757;28;46490;-85
2023/07/30 00:37:08;;;;;;;5.53;2.20;;;18.60;54.50;;;;;;5059236;28;46663;-83
2023/07/30 00:39:33;;;;;;;5.00;2.20;;;18.40;54.40;;;;;;5058314;28;46215;-83
2023/07/30 00:41:59;;;;;;;4.03;2.10;;;18.40;54.60;;;;;;5058687;28;46704;-83
2023/07/30 00:44:24;;;;;;;7.80;2.47;;;18.60;55.00;;;;;;5045558;28;46715;-83
2023/07/30 00:46:50;;;;;;;4.90;2.03;;;18.20;54.60;;;;;;5057265;28;46525;-83
2023/07/30 00:49:16;;;;;;;7.90;2.03;;;18.10;55.90;;;;;;5042566;28;48337;-81
2023/07/30 00:51:43;;;;;;;8.03;1.93;;;18.00;56.70;;;;;;5058339;28;46484;-84
2023/07/30 00:54:09;;;;;;;5.17;2.17;;;17.90;57.30;;;;;;5056833;28;46488;-83
2023/07/30 00:56:36;;;;;;;6.10;2.03;;;17.90;57.70;;;;;;5060287;28;46549;-83
2023/07/30 00:59:02;;;;;;;3.20;1.90;;;17.80;57.70;;;;;;5063294;28;47363;-84
2023/07/30 01:01:28;;;;;;;5.00;2.10;;;17.90;58.00;;;;;;5068683;28;46570;-84
2023/07/30 01:03:54;;;;;;;3.77;2.10;;;17.80;57.60;;;;;;5041826;28;46450;-84
2023/07/30 01:06:20;;;;;;;4.37;2.13;;;17.80;56.80;;;;;;5060123;28;46546;-85
2023/07/30 01:08:46;;;;;;;6.47;3.10;;;17.80;57.60;;;;;;5040945;28;47096;-83
2023/07/30 01:11:14;;;;;;;3.70;2.30;;;17.80;57.60;;;;;;5059080;28;46419;-83
2023/07/30 01:13:40;;;;;;;7.77;2.43;;;17.80;56.50;;;;;;5058212;28;46643;-84
2023/07/30 01:16:06;;;;;;;5.33;2.60;;;17.90;57.50;;;;;;5039633;28;46570;-84
2023/07/30 01:18:32;;;;;;;4.70;2.33;;;17.90;56.30;;;;;;5060200;28;47881;-83
2023/07/30 01:20:59;;;;;;;8.70;2.20;;;18.00;57.60;;;;;;5060865;28;46576;-82
2023/07/30 01:23:26;;;;;;;5.40;2.23;;;17.90;57.60;;;;;;5061037;28;46453;-84
2023/07/30 01:26:02;;;;;;;4.17;2.23;;;18.00;57.80;;;;;;5043567;28;46560;-85
2023/07/30 01:28:33;;;;;;;5.70;2.40;;;17.70;57.40;;;;;;5059165;28;46581;-83
2023/07/30 01:31:01;;;;;;;4.30;2.43;;;17.70;58.80;;;;;;5057227;28;49550;-84
2023/07/30 01:33:28;;;;;;;5.33;2.60;;;17.50;58.60;;;;;;5042163;28;46154;-83
2023/07/30 01:35:56;;;;;;;3.97;2.30;;;17.50;58.40;;;;;;5060833;28;46629;-83
2023/07/30 01:38:22;;;;;;;12.00;2.70;;;17.50;58.50;;;;;;5055303;28;47973;-83
2023/07/30 01:40:48;;;;;;;4.17;2.40;;;17.50;59.40;;;;;;5058747;27;46521;-84
2023/07/30 01:43:14;;;;;;;4.80;2.50;;;;;;;;;;5060934;28;45859;-83
2023/07/30 01:45:40;;;;;;;6.60;2.73;;;17.60;57.70;;;;;;5058796;28;45894;-84
2023/07/30 01:48:06;;;;;;;10.00;2.63;;;17.70;57.70;;;;;;5059595;28;46639;-85
2023/07/30 01:50:31;;;;;;;4.60;2.60;;;17.80;57.80;;;;;;5058995;28;46567;-83
2023/07/30 01:52:57;;;;;;;4.73;2.37;;;17.90;59.00;;;;;;5060961;27;46596;-84
2023/07/30 01:55:23;;;;;;;5.03;3.10;;;18.80;59.80;;;;;;5062554;28;46419;-84
2023/07/30 01:57:48;;;;;;;4.87;2.83;;;17.90;58.90;;;;;;5061691;28;47926;-84
2023/07/30 02:00:14;;;;;;;5.83;2.50;;;17.90;59.00;;;;;;5063184;28;46648;-84
2023/07/30 02:02:39;;;;;;;5.20;2.53;;;17.90;59.00;;;;;;5063591;28;46080;-84
2023/07/30 02:05:05;;;;;;;4.80;2.57;;;18.50;59.50;;;;;;5063677;28;46976;-85
2023/07/30 02:07:31;;;;;;;7.43;2.97;;;18.00;59.00;;;;;;5065419;28;46841;-84
2023/07/30 02:09:56;;;;;;;5.50;3.07;;;18.10;59.20;;;;;;5069375;28;46688;-83
2023/07/30 02:12:22;;;;;;;4.93;2.80;;;18.10;59.20;;;;;;5064166;28;46512;-83
2023/07/30 02:14:47;;;;;;;4.67;2.47;;;18.10;59.30;;;;;;5065279;28;46856;-83
2023/07/30 02:17:13;;;;;;;6.93;3.80;;;18.20;59.20;;;;;;5045741;28;48019;-84
2023/07/30 02:19:39;;;;;;;4.37;2.47;;;18.20;59.20;;;;;;5067932;28;46487;-84
2023/07/30 02:22:04;;;;;;;6.37;3.30;;;18.20;59.30;;;;;;5063287;28;46427;-82
2023/07/30 02:24:30;;;;;;;5.33;2.73;;;18.30;59.40;;;;;;5062269;28;46201;-84
2023/07/30 02:26:55;;;;;;;5.23;2.70;;;18.30;59.40;;;;;;5061708;28;46595;-83
2023/07/30 02:29:21;;;;;;;5.70;2.57;;;18.30;59.30;;;;;;5062206;28;46485;-84
2023/07/30 02:31:47;;;;;;;5.03;2.93;;;18.40;59.40;;;;;;5045005;28;46435;-83
2023/07/30 02:34:12;;;;;;;4.40;3.00;;;18.30;59.40;;;;;;5061566;28;46343;-84
2023/07/30 02:36:38;;;;;;;6.17;2.70;;;18.20;59.30;;;;;;5062542;28;46436;-84
2023/07/30 02:39:03;;;;;;;6.50;2.83;;;18.30;59.40;;;;;;5062978;28;46447;-83
2023/07/30 02:41:29;;;;;;;3.90;2.57;;;18.10;59.20;;;;;;5064585;28;45766;-84
2023/07/30 02:43:54;;;;;;;4.20;2.80;;;18.10;59.90;;;;;;5062673;28;46615;-84
2023/07/30 02:46:20;;;;;;;4.90;2.67;;;18.00;59.50;;;;;;5065448;28;47019;-84
2023/07/30 02:48:45;;;;;;;5.50;2.90;;;18.00;60.50;;;;;;5055339;28;46705;-82
2023/07/30 02:51:11;;;;;;;5.73;2.70;;;17.90;60.80;;;;;;5066367;28;46388;-82
2023/07/30 02:53:36;;;;;;;3.90;2.50;;;17.80;61.10;;;;;;5062980;28;46644;-84
2023/07/30 02:56:02;;;;;;;5.13;3.13;;;17.80;61.20;;;;;;5061443;28;46455;-83
2023/07/30 02:58:28;;;;;;;8.47;3.03;;;17.70;60.10;;;;;;5060330;28;46789;-83
2023/07/30 03:00:53;;;;;;;6.03;2.90;;;17.70;61.70;;;;;;5063926;28;46448;-83
2023/07/30 03:03:19;;;;;;;4.87;3.20;;;17.60;61.70;;;;;;5061826;28;46554;-83
2023/07/30 03:05:44;;;;;;;6.27;2.67;;;17.60;61.80;;;;;;5043983;28;48419;-85
2023/07/30 03:08:10;;;;;;;12.87;3.10;;;17.50;61.60;;;;;;5043520;28;46428;-84
2023/07/30 03:10:38;;;;;;;4.80;3.03;;;17.50;61.60;;;;;;5044253;28;46755;-84
2023/07/30 03:13:04;;;;;;;5.83;3.67;;;17.40;61.70;;;;;;5061022;28;46459;-84
2023/07/30 03:15:30;;;;;;;5.90;2.90;;;17.40;62.00;;;;;;5060072;28;48358;-84
2023/07/30 03:17:55;;;;;;;7.23;3.03;;;17.30;62.30;;;;;;5062786;28;46909;-82
2023/07/30 03:20:21;;;;;;;7.70;3.50;;;17.30;62.30;;;;;;5063007;28;46143;-83
2023/07/30 03:22:46;;;;;;;9.10;3.23;;;17.20;62.40;;;;;;5046656;28;46608;-81
2023/07/30 03:25:12;;;;;;;10.27;3.63;;;17.20;62.50;;;;;;5062371;28;46655;-83
2023/07/30 03:27:37;;;;;;;5.10;3.13;;;17.20;62.70;;;;;;5058969;28;46760;-83
2023/07/30 03:30:04;;;;;;;5.30;3.30;;;17.10;62.60;;;;;;5062798;28;46363;-84
2023/07/30 03:32:30;;;;;;;6.90;3.20;;;17.00;62.50;;;;;;5066068;28;46825;-82
2023/07/30 03:34:55;;;;;;;9.40;3.17;;;17.00;63.00;;;;;;5058886;28;46505;-83
2023/07/30 03:37:21;;;;;;;8.70;3.73;;;16.90;63.20;;;;;;5040901;28;47399;-83
2023/07/30 03:39:46;;;;;;;8.73;3.63;;;16.80;63.50;;;;;;5040753;28;46409;-84
2023/07/30 03:42:12;;;;;;;9.83;3.60;;;16.70;63.70;;;;;;5062543;28;46453;-84
2023/07/30 03:44:37;;;;;;;12.47;3.23;;;17.50;64.70;;;;;;5062078;28;47407;-84
2023/07/30 03:47:03;;;;;;;12.60;4.93;;;16.60;63.80;;;;;;5058157;28;46538;-83
2023/07/30 03:49:29;;;;;;;6.70;3.03;;;16.90;64.30;;;;;;5042325;28;46464;-84
2023/07/30 03:51:54;;;;;;;5.40;3.33;;;16.60;64.10;;;;;;5059446;28;46883;-81
2023/07/30 03:54:20;;;;;;;4.83;2.87;;;16.60;64.10;;;;;;5041140;28;48411;-83
2023/07/30 03:56:45;;;;;;;9.43;2.90;;;16.60;65.50;;;;;;5064270;28;46085;-83
2023/07/30 03:59:11;;;;;;;5.37;3.33;;;16.60;64.10;;;;;;5061079;28;46421;-83
2023/07/30 04:01:36;;;;;;;7.87;3.07;;;16.70;64.30;;;;;;5061063;28;46956;-83
2023/07/30 04:04:02;;;;;;;5.73;3.27;;;16.70;64.20;;;;;;5058958;28;47113;-84
2023/07/30 04:06:27;;;;;;;12.43;3.90;;;16.70;63.20;;;;;;5042035;28;46987;-82
2023/07/30 04:08:53;;;;;;;5.87;3.47;;;16.70;64.10;;;;;;5059118;28;46508;-84
2023/07/30 04:11:19;;;;;;;8.80;3.20;;;16.70;64.20;;;;;;5046552;28;46835;-85
2023/07/30 04:13:44;;;;;;;9.93;3.70;;;16.90;64.30;;;;;;5043088;28;47967;-82
2023/07/30 04:16:10;;;;;;;9.33;3.70;;;16.70;64.10;;;;;;5041893;28;46475;-84
2023/07/30 04:18:35;;;;;;;5.47;3.10;;;16.80;64.20;;;;;;5039332;28;46340;-84
2023/07/30 04:21:01;;;;;;;6.13;3.20;;;16.80;64.30;;;;;;5061848;28;46400;-84
2023/07/30 04:23:26;;;;;;;6.20;3.03;;;16.90;64.60;;;;;;5059549;28;46489;-85
2023/07/30 04:25:52;;;;;;;6.67;3.30;;;17.00;64.50;;;;;;5043889;28;46420;-83
2023/07/30 04:28:17;;;;;;;5.50;3.03;;;17.00;64.30;;;;;;5043198;28;46665;-85
2023/07/30 04:30:44;;;;;;;6.47;3.40;;;17.10;64.30;;;;;;5061152;28;46611;-85
2023/07/30 04:33:10;;;;;;;8.90;3.57;;;18.00;65.10;;;;;;5060446;28;48678;-85
2023/07/30 04:35:35;;;;;;;5.73;2.97;;;17.20;64.20;;;;;;5066504;28;46151;-83
2023/07/30 04:38:01;;;;;;;8.37;3.70;;;17.30;64.20;;;;;;5068638;28;46483;-83
2023/07/30 04:40:26;;;;;;;5.80;3.30;;;17.50;64.40;;;;;;5060081;28;46845;-82
2023/07/30 04:42:52;;;;;;;7.20;2.90;;;17.50;64.10;;;;;;5060700;28;46385;-81
2023/07/30 04:45:17;;;;;;;5.20;3.13;;;17.60;63.90;;;;;;5044245;28;46790;-84
2023/07/30 04:47:43;;;;;;;4.40;3.00;;;17.70;63.80;;;;;;5044013;28;46492;-82
2023/07/30 04:50:09;;;;;;;4.63;2.77;;;17.90;63.70;;;;;;5062173;28;46996;-84
2023/07/30 04:52:34;;;;;;;5.27;3.00;;;18.00;63.50;;;;;;5063915;28;46711;-84
2023/07/30 04:55:00;;;;;;;4.40;2.33;;;18.40;63.80;;;;;;5058281;28;46888;-82
2023/07/30 04:57:26;;;;;;;5.10;2.93;;;18.10;63.30;;;;;;5060969;28;46614;-84
2023/07/30 04:59:51;;;;;;;7.20;3.13;;;18.30;62.90;;;;;;5061253;28;46942;-78
2023/07/30 05:02:17;;;;;;;5.33;2.50;;;19.50;62.10;;;;;;5057581;28;46366;-81
2023/07/30 05:04:42;;;;;;;5.77;2.50;;;20.60;61.30;;;;;;5059519;28;46505;-83
2023/07/30 05:07:11;;;;;;;4.43;2.47;;;21.40;59.60;;;;;;5058455;28;46569;-85
2023/07/30 05:09:37;;;;;;;4.30;2.10;;;22.20;58.80;;;;;;5061782;28;46835;-84
2023/07/30 05:12:05;;;;;;;4.53;2.27;;;22.80;57.00;;;;;;5064083;28;46792;-80
2023/07/30 05:14:31;;;;;;;4.00;2.40;;;26.00;57.50;;;;;;5047455;28;46458;-82
2023/07/30 05:16:57;;;;;;;4.50;2.30;;;23.80;53.60;;;;;;5051148;28;46444;-83
2023/07/30 05:19:22;;;;;;;3.67;1.97;;;24.80;46.10;;;;;;5066721;28;46191;-82
2023/07/30 05:21:48;;;;;;;4.67;2.67;;;24.80;44.40;;;;;;5068202;28;46510;-81
2023/07/30 05:24:17;;;;;;;5.80;2.40;;;24.90;51.80;;;;;;5065975;28;46677;-84
2023/07/30 05:26:42;;;;;;;5.70;3.10;;;25.80;53.10;;;;;;5048032;28;46463;-84
2023/07/30 05:29:08;;;;;;;6.07;2.30;;;26.20;42.40;;;;;;5064157;28;46675;-84
2023/07/30 05:31:34;;;;;;;4.53;2.50;;;;;;;;;;5066973;28;47358;-84
2023/07/30 05:34:00;;;;;;;4.00;2.23;;;26.80;36.10;;;;;;5067120;28;46615;-83
2023/07/30 05:36:28;;;;;;;5.97;2.47;;;27.70;32.40;;;;;;5050648;28;46516;-79
2023/07/30 05:38:54;;;;;;;6.30;2.40;;;27.80;33.80;;;;;;5066577;28;46387;-81
2023/07/30 05:41:21;;;;;;;5.80;2.37;;;27.80;31.70;;;;;;5065310;28;48079;-84
2023/07/30 05:43:46;;;;;;;5.60;2.30;;;27.90;30.60;;;;;;5063811;28;45888;-80
2023/07/30 05:46:12;;;;;;;5.30;2.13;;;28.30;29.10;;;;;;5063926;28;46548;-84
2023/07/30 05:48:38;;;;;;;3.30;2.20;;;28.50;27.80;;;;;;5065899;28;46832;-83
2023/07/30 05:51:03;;;;;;;3.30;1.90;;;28.40;27.90;;;;;;5064176;28;48158;-80
2023/07/30 05:53:29;;;;;;;4.07;2.17;;;28.60;27.60;;;;;;5064828;28;46286;-84
2023/07/30 05:55:55;;;;;;;5.00;2.40;;;28.50;25.50;;;;;;5068206;28;46495;-83
2023/07/30 05:58:20;;;;;;;3.43;2.00;;;28.20;24.00;;;;;;5068504;28;46495;-86
2023/07/30 06:00:46;;;;;;;5.77;2.27;;;27.90;25.00;;;;;;5068269;28;47123;-85
2023/07/30 06:03:11;;;;;;;8.20;2.13;;;27.70;25.00;;;;;;5064394;28;46664;-84
2023/07/30 06:05:41;;;;;;;5.83;2.60;;;28.10;23.80;;;;;;5070128;28;45825;-82
2023/07/30 06:08:07;;;;;;;4.73;1.97;;;28.50;22.60;;;;;;5069137;28;47295;-84
2023/07/30 06:10:37;;;;;;;3.57;2.03;;;28.90;21.60;;;;;;5067555;28;46567;-84
2023/07/30 06:13:03;;;;;;;5.10;2.10;;;29.10;20.10;;;;;;5068029;28;46613;-87
2023/07/30 06:15:29;;;;;;;7.60;2.20;;;28.90;20.10;;;;;;5047533;28;46408;-85
2023/07/30 06:17:55;;;;;;;4.20;2.50;;;28.60;20.20;;;;;;5074031;28;46428;-83
2023/07/30 06:20:21;;;;;;;4.03;2.30;;;28.90;20.00;;;;;;5057326;28;48379;-85
2023/07/30 06:22:46;;;;;;;3.57;2.03;;;29.20;18.80;;;;;;5048637;28;46837;-84
2023/07/30 06:25:12;;;;;;;3.50;2.00;;;29.10;18.20;;;;;;5050815;28;46800;-84
2023/07/30 06:27:38;;;;;;;3.23;1.90;;;27.60;21.70;;;;;;5067705;28;46873;-84
2023/07/30 06:30:04;;;;;;;3.73;2.00;;;26.50;25.70;;;;;;5064654;28;49516;-84
2023/07/30 06:32:30;;;;;;;4.80;2.53;;;25.80;27.50;;;;;;5063517;28;47010;-84
2023/07/30 06:34:58;;;;;;;3.87;2.10;;;25.30;29.50;;;;;;5067582;28;46834;-85
2023/07/30 06:37:24;;;;;;;3.43;1.67;;;25.60;26.30;;;;;;5067314;28;46677;-84
2023/07/30 06:39:49;;;;;;;4.70;2.30;;;26.80;21.90;;;;;;5064812;28;49449;-84
2023/07/30 06:42:15;;;;;;;7.73;2.27;;;27.10;20.20;;;;;;5064174;28;46465;-83
2023/07/30 06:44:40;;;;;;;5.17;2.07;;;27.50;19.60;;;;;;5065825;28;46545;-83
2023/07/30 06:47:06;;;;;;;5.03;2.43;;;26.90;21.40;;;;;;5047138;28;46328;-84
2023/07/30 06:49:34;;;;;;;3.77;2.10;;;26.00;24.20;;;;;;5067160;28;45952;-83
2023/07/30 06:51:59;;;;;;;3.83;2.20;;;25.20;26.50;;;;;;5062473;28;47714;-84
2023/07/30 06:54:25;;;;;;;3.60;2.10;;;24.80;28.80;;;;;;5048225;28;45971;-83
2023/07/30 06:56:51;;;;;;;3.40;1.97;;;24.50;29.60;;;;;;5066067;28;46441;-85
2023/07/30 06:59:16;;;;;;;5.10;1.80;;;24.30;30.20;;;;;;5063265;28;46459;-84
2023/07/30 07:01:42;;;;;;;4.70;1.83;;;24.30;30.50;;;;;;5061200;28;46609;-83
2023/07/30 07:04:07;;;;;;;5.13;2.10;;;24.20;30.50;;;;;;5058182;28;46468;-85
2023/07/30 07:06:33;;;;;;;4.50;2.00;;;;;;;;;;5044239;28;46481;-87
2023/07/30 07:08:59;;;;;;;5.40;2.20;;;24.40;29.20;;;;;;5063028;28;46604;-84
2023/07/30 07:11:24;;;;;;;5.47;2.50;;;24.40;29.60;;;;;;5065334;28;46437;-86
2023/07/30 07:13:50;;;;;;;5.03;2.40;;;24.30;29.10;;;;;;5058863;28;46481;-84
2023/07/30 07:16:15;;;;;;;4.60;1.87;;;24.00;27.80;;;;;;5059001;28;46622;-81
2023/07/30 07:18:41;;;;;;;3.87;1.80;;;24.00;28.60;;;;;;5060290;28;46489;-79
2023/07/30 07:21:07;;;;;;;3.40;1.93;;;23.80;28.60;;;;;;5059393;28;46479;-81
2023/07/30 07:23:33;;;;;;;4.77;2.23;;;23.70;28.70;;;;;;5049513;28;46482;-80
2023/07/30 07:25:59;;;;;;;3.70;2.00;;;23.80;28.60;;;;;;5050075;28;46513;-78
2023/07/30 07:28:25;;;;;;;4.17;2.10;;;23.80;28.80;;;;;;5067610;28;47010;-81
2023/07/30 07:30:51;;;;;;;4.30;2.03;;;23.90;28.70;;;;;;5044366;28;46891;-83
2023/07/30 07:33:16;;;;;;;9.60;1.70;;;24.00;28.40;;;;;;5057087;28;46474;-80
2023/07/30 07:35:42;;;;;;;6.07;2.60;;;24.00;28.30;;;;;;5059850;28;46912;-82
2023/07/30 07:38:08;;;;;;;3.53;1.90;;;24.00;28.30;;;;;;5058864;27;46396;-82
2023/07/30 07:40:41;;;;;;;4.80;2.50;;;23.90;28.70;;;;;;5040435;28;47247;-83
2023/07/30 07:43:07;;;;;;;4.00;1.97;;;24.10;28.70;;;;;;5059039;28;46435;-82
2023/07/30 07:45:33;;;;;;;6.33;1.97;;;24.30;28.10;;;;;;5060621;28;46470;-84
2023/07/30 07:47:59;;;;;;;3.93;2.23;;;24.50;27.50;;;;;;5061465;28;47269;-82
2023/07/30 07:50:24;;;;;;;6.13;2.37;;;24.90;26.70;;;;;;5041821;27;46639;-82
2023/07/30 07:52:50;;;;;;;3.67;2.00;;;24.80;26.20;;;;;;5060744;28;46490;-82
2023/07/30 07:55:16;;;;;;;4.37;2.20;;;24.70;26.60;;;;;;5059905;28;46721;-81
2023/07/30 07:57:42;;;;;;;3.83;2.10;;;24.60;26.40;;;;;;5046184;28;48471;-84
2023/07/30 08:00:09;;;;;;;5.00;2.17;;;24.60;26.50;;;;;;5059259;28;46474;-83
2023/07/30 08:02:34;;;;;;;4.77;2.20;;;24.50;26.80;;;;;;5060967;28;46517;-85
2023/07/30 08:05:01;;;;;;;4.57;2.23;;;24.70;26.90;;;;;;5044200;28;46549;-84
2023/07/30 08:07:26;;;;;;;4.10;2.00;;;24.70;26.40;;;;;;5038480;28;49405;-83
2023/07/30 08:09:53;;;;;;;4.33;2.07;;;24.90;25.90;;;;;;5044261;28;46663;-83
2023/07/30 08:12:19;;;;;;;4.20;2.00;;;25.10;26.00;;;;;;5059961;28;46348;-81
2023/07/30 08:14:45;;;;;;;4.07;2.07;;;25.50;25.60;;;;;;5066000;28;46639;-82
2023/07/30 08:17:11;;;;;;;3.47;1.60;;;25.70;24.30;;;;;;5039568;28;48012;-81
2023/07/30 08:19:36;;;;;;;4.03;2.13;;;25.60;24.00;;;;;;5039422;28;46569;-84
2023/07/30 08:22:02;;;;;;;5.00;1.77;;;25.60;23.90;;;;;;5040834;28;46634;-85
2023/07/30 08:24:27;;;;;;;3.73;2.10;;;25.50;24.10;;;;;;5042495;28;45974;-81
2023/07/30 08:26:53;;;;;;;3.70;2.07;;;25.30;24.00;;;;;;5060305;28;47019;-83
2023/07/30 08:29:19;;;;;;;3.87;1.90;;;25.10;24.50;;;;;;5059374;28;45806;-84
2023/07/30 08:31:44;;;;;;;5.67;2.50;;;25.00;24.80;;;;;;5057794;28;47070;-83
2023/07/30 08:34:11;;;;;;;7.30;2.10;;;25.10;24.30;;;;;;5061922;28;46646;-85
2023/07/30 08:36:36;;;;;;;3.90;2.07;;;25.00;24.10;;;;;;5061566;28;47583;-83
2023/07/30 08:39:03;;;;;;;4.00;1.97;;;24.80;24.50;;;;;;5060668;28;46848;-82
2023/07/30 08:41:29;;;;;;;4.27;1.90;;;24.90;24.20;;;;;;5061257;28;46271;-85
2023/07/30 08:43:55;;;;;;;3.30;1.70;;;25.30;23.80;;;;;;5041459;28;45895;-83
2023/07/30 08:46:21;;;;;;;4.87;2.10;;;25.10;22.40;;;;;;5057379;28;48070;-83
2023/07/30 08:48:47;;;;;;;10.90;1.83;;;25.10;23.30;;;;;;5061244;28;46560;-86
2023/07/30 08:51:13;;;;;;;4.87;1.90;;;25.40;23.20;;;;;;5060567;28;46542;-83
2023/07/30 08:53:39;;;;;;;5.90;2.27;;;25.60;22.60;;;;;;5058980;28;46480;-83
2023/07/30 08:56:05;;;;;;;3.63;2.03;;;25.80;22.60;;;;;;5058422;28;46683;-82
2023/07/30 08:58:34;;;;;;;4.07;2.10;;;26.40;21.70;;;;;;5057461;28;45933;-85
2023/07/30 09:01:05;;;;;;;4.13;1.77;;;26.20;20.70;;;;;;5055411;28;46450;-82
2023/07/30 09:03:35;;;;;;;3.87;1.70;;;26.20;21.00;;;;;;5058995;27;46792;-82
2023/07/30 09:06:02;;;;;;;4.43;2.40;;;26.40;20.60;;;;;;5062811;28;47325;-81
2023/07/30 09:08:29;;;;;;;4.87;1.67;;;26.20;20.50;;;;;;5044094;28;46396;-84
2023/07/30 09:10:55;;;;;;;5.77;2.23;;;26.10;20.70;;;;;;5062638;28;46818;-80
2023/07/30 09:13:24;;;;;;;5.33;1.90;;;26.30;20.70;;;;;;5059384;28;46420;-82
2023/07/30 09:15:52;;;;;;;3.27;1.80;;;26.40;19.60;;;;;;5061833;28;46432;-82
2023/07/30 09:18:18;;;;;;;3.57;1.80;;;26.50;20.10;;;;;;5062279;28;46660;-83
2023/07/30 09:20:44;;;;;;;3.90;2.00;;;26.90;19.40;;;;;;5061564;28;46459;-83
2023/07/30 09:23:11;;;;;;;4.00;1.53;;;26.70;19.30;;;;;;5063236;28;46741;-81
2023/07/30 09:25:37;;;;;;;5.03;2.10;;;26.00;19.50;;;;;;5063260;28;46676;-80
2023/07/30 09:28:03;;;;;;;3.67;2.17;;;26.00;20.50;;;;;;5066064;28;46372;-81
2023/07/30 09:30:29;;;;;;;4.73;1.73;;;25.70;21.20;;;;;;5062219;28;46519;-80
2023/07/30 09:32:57;;;;;;;4.00;2.37;;;25.50;21.50;;;;;;5065306;28;45897;-81
2023/07/30 09:35:24;;;;;;;3.70;2.10;;;25.40;21.90;;;;;;5063360;28;48222;-82
2023/07/30 09:37:57;;;;;;;3.73;2.07;;;27.50;22.10;;;;;;5063671;28;46491;-81
2023/07/30 09:40:32;;;;;;;3.57;1.60;;;26.20;21.10;;;;;;5061134;28;47457;-80
2023/07/30 09:42:57;;;;;;;3.20;1.80;;;26.50;20.40;;;;;;5058224;28;46237;-81
2023/07/30 09:45:24;;;;;;;4.57;2.07;;;26.50;20.00;;;;;;5061285;28;46589;-81
2023/07/30 09:47:52;;;;;;;3.87;1.93;;;26.30;19.80;;;;;;5062571;28;46336;-82
2023/07/30 09:50:17;;;;;;;3.17;1.60;;;26.30;19.40;;;;;;5059807;28;46470;-81
2023/07/30 09:52:44;;;;;;;4.80;1.70;;;26.30;19.50;;;;;;5060160;28;46686;-78
2023/07/30 09:55:10;;;;;;;4.33;1.93;;;26.30;18.90;;;;;;5040644;28;46625;-81
2023/07/30 09:57:39;;;;;;;3.47;1.70;;;26.20;19.00;;;;;;5058746;28;46625;-81
2023/07/30 10:00:08;;;;;;;3.60;1.67;;;26.20;18.50;;;;;;5043248;28;46750;-82
2023/07/30 10:02:40;;;;;;;3.20;1.60;;;26.40;18.30;;;;;;5059684;28;46487;-81
2023/07/30 10:05:19;;;;;;;6.67;1.67;;;26.50;18.10;;;;;;5061473;28;47137;-81
2023/07/30 10:07:53;;;;;;;7.53;1.80;;;26.80;17.40;;;;;;5060797;28;46677;-82
2023/07/30 10:10:19;;;;;;;8.33;1.93;;;26.90;16.60;;;;;;5059657;28;46419;-79
2023/07/30 10:12:46;;;;;;;8.70;1.80;;;26.80;15.80;;;;;;5057447;28;46860;-82
2023/07/30 10:15:12;;;;;;;10.03;1.43;;;26.70;15.80;;;;;;5043582;28;49393;-78
2023/07/30 10:17:37;;;;;;;4.10;1.87;;;26.80;15.80;;;;;;5059032;28;46800;-85
2023/07/30 10:20:29;;;;;;;5.47;2.20;;;27.00;15.70;;;;;;5063288;28;46701;-84
2023/07/30 10:22:56;;;;;;;5.30;2.00;;;26.30;14.60;;;;;;5062089;28;46426;-86
2023/07/30 10:25:43;;;;;;;3.40;1.53;;;27.00;15.90;;;;;;5069611;28;47252;-81
2023/07/30 10:28:09;;;;;;;2.93;1.50;;;27.30;15.90;;;;;;5061377;28;46829;-83
2023/07/30 10:30:35;;;;;;;3.60;1.73;;;27.80;15.80;;;;;;5065650;28;46282;-86
2023/07/30 10:33:08;;;;;;;3.90;2.00;;;28.00;14.50;;;;;;5064773;28;46486;-86
2023/07/30 10:35:46;;;;;;;3.50;1.70;;;27.80;14.20;;;;;;5062030;28;47062;-86
2023/07/30 10:38:17;;;;;;;3.30;1.60;;;28.00;14.10;;;;;;5050721;28;46423;-84
2023/07/30 10:40:59;;;;;;;3.43;1.60;;;28.00;14.00;;;;;;5063593;28;46467;-83
2023/07/30 10:43:30;;;;;;;3.40;1.70;;;27.90;13.70;;;;;;5047200;28;46282;-84
2023/07/30 10:45:56;;;;;;;4.50;1.73;;;27.30;13.50;;;;;;5060009;28;46940;-83
2023/07/30 10:48:39;;;;;;;3.90;1.83;;;26.90;14.40;;;;;;5062500;28;46444;-84
2023/07/30 10:51:08;;;;;;;3.77;1.70;;;27.10;14.10;;;;;;5063928;28;46459;-83
2023/07/30 10:53:36;;;;;;;3.70;1.50;;;27.30;14.30;;;;;;5044543;28;46760;-83
2023/07/30 10:56:03;;;;;;;2.93;1.40;;;27.50;14.50;;;;;;5062214;28;49281;-82
2023/07/30 10:58:33;;;;;;;3.73;1.60;;;27.90;13.40;;;;;;5063245;28;46413;-82
2023/07/30 11:01:01;;;;;;;3.93;1.80;;;27.70;12.90;;;;;;5061870;28;46437;-82
2023/07/30 11:03:27;;;;;;;3.90;1.87;;;27.50;13.70;;;;;;5041635;28;45969;-83
2023/07/30 11:05:54;;;;;;;7.83;1.53;;;27.00;14.70;;;;;;5040875;28;48017;-82
2023/07/30 11:08:38;;;;;;;3.40;1.93;;;26.20;15.50;;;;;;5060928;28;46733;-80
2023/07/30 11:11:05;;;;;;;3.80;1.70;;;25.50;17.70;;;;;;5040991;28;46415;-82
2023/07/30 11:13:48;;;;;;;3.40;1.90;;;24.80;19.90;;;;;;5061265;28;46683;-84
2023/07/30 11:16:15;;;;;;;4.30;1.60;;;24.40;21.50;;;;;;5041743;28;48063;-81
2023/07/30 11:18:42;;;;;;;3.00;1.43;;;24.20;22.10;;;;;;5059765;28;45921;-84
2023/07/30 11:21:10;;;;;;;5.00;2.10;;;24.20;22.40;;;;;;5057959;28;46416;-84
2023/07/30 11:23:37;;;;;;;3.93;1.60;;;24.10;22.10;;;;;;5041699;28;46756;-87
2023/07/30 11:26:05;;;;;;;4.70;2.10;;;24.00;22.50;;;;;;5058730;28;46489;-85
2023/07/30 11:28:33;;;;;;;4.87;1.90;;;23.50;23.40;;;;;;5059385;28;47231;-84
2023/07/30 11:31:07;;;;;;;3.73;1.80;;;23.40;24.80;;;;;;5062741;28;46457;-84
2023/07/30 11:33:35;;;;;;;3.40;1.93;;;23.40;24.80;;;;;;5060874;28;47545;-85
2023/07/30 11:36:01;;;;;;;5.00;2.00;;;23.50;24.90;;;;;;5059582;28;46816;-83
2023/07/30 11:38:28;;;;;;;3.80;2.00;;;23.60;25.00;;;;;;5056167;28;47060;-83
2023/07/30 11:40:54;;;;;;;4.63;2.03;;;23.70;25.00;;;;;;5057537;28;46490;-82
2023/07/30 11:43:21;;;;;;;5.73;2.13;;;24.00;24.40;;;;;;5038264;28;46478;-82
2023/07/30 11:45:47;;;;;;;6.30;1.90;;;24.00;24.10;;;;;;5058099;28;46364;-85
2023/07/30 11:48:13;;;;;;;3.37;1.80;;;24.00;24.10;;;;;;5057076;28;45816;-84
2023/07/30 11:50:48;;;;;;;5.10;2.07;;;24.20;24.30;;;;;;5059362;28;46383;-84
2023/07/30 11:53:15;;;;;;;4.37;1.80;;;24.50;23.90;;;;;;5056219;28;46484;-83
2023/07/30 11:55:42;;;;;;;10.40;1.70;;;24.20;23.40;;;;;;5058858;28;47135;-83
2023/07/30 11:58:11;;;;;;;11.03;1.87;;;23.80;23.90;;;;;;5058895;28;46447;-84
2023/07/30 12:00:41;;;;;;;4.20;1.60;;;23.70;24.00;;;;;;5057328;28;46770;-82
2023/07/30 12:03:11;;;;;;;4.27;2.03;;;23.80;24.10;;;;;;5037318;28;46740;-83
2023/07/30 12:05:38;;;;;;;3.33;1.87;;;24.00;23.70;;;;;;5059457;28;46710;-84
2023/07/30 12:08:07;;;;;;;4.80;2.00;;;24.00;23.80;;;;;;5055345;28;46598;-81
2023/07/30 12:10:49;;;;;;;4.10;1.60;;;24.40;23.10;;;;;;5057831;28;46412;-85
2023/07/30 12:13:19;;;;;;;5.77;1.77;;;24.40;23.10;;;;;;5058948;28;46237;-82
2023/07/30 12:15:55;;;;;;;4.30;2.03;;;24.40;22.60;;;;;;5056606;28;46500;-81
2023/07/30 12:18:21;;;;;;;6.77;1.67;;;24.40;22.60;;;;;;5057158;28;46648;-84
2023/07/30 12:20:47;;;;;;;5.10;2.00;;;24.50;22.40;;;;;;5055809;28;46316;-82
2023/07/30 12:23:13;;;;;;;3.83;1.90;;;24.20;23.00;;;;;;5056492;28;46533;-84
2023/07/30 12:25:39;;;;;;;5.07;2.00;;;24.20;23.50;;;;;;5036160;28;47524;-85
2023/07/30 12:28:05;;;;;;;4.57;2.03;;;24.20;23.10;;;;;;5056072;28;46609;-81
2023/07/30 12:30:30;;;;;;;7.00;2.03;;;24.10;23.50;;;;;;5056500;28;46500;-84
2023/07/30 12:32:56;;;;;;;3.20;1.70;;;23.90;23.90;;;;;;5051923;28;46564;-82
2023/07/30 12:35:22;;;;;;;5.13;2.03;;;23.80;24.60;;;;;;5056953;28;46491;-83
2023/07/30 12:37:48;;;;;;;7.63;1.93;;;24.10;24.30;;;;;;5055682;28;46656;-82
2023/07/30 12:40:13;;;;;;;3.67;1.73;;;24.30;24.10;;;;;;5039570;28;46671;-82
2023/07/30 12:42:39;;;;;;;3.60;1.77;;;24.80;23.40;;;;;;5060454;28;46515;-80
2023/07/30 12:45:05;;;;;;;3.90;2.00;;;24.90;23.50;;;;;;5056477;28;46537;-83